Time;durP1;ratioP1;P1;durP2;ratioP2;P2;SDS_P1;SDS_P2;PMS_P1;PMS_P2;Temp;Humidity;BMP_temperature;BMP_pressure;BME280_temperature;BME280_humidity;BME280_pressure;Samples;Min_cycle;Max_cycle;Signal;HPM_P1;HPM_P2
2021/11/05 00:01:45;;;;;;;10.68;0.90;;;;;;;7.40;100.00;101738.81;5027665;28;20032;-74
2021/11/05 00:04:11;;;;;;;6.47;0.90;;;;;;;7.36;100.00;101733.38;5029413;28;20432;-74
2021/11/05 00:06:37;;;;;;;5.95;0.98;;;;;;;7.32;100.00;101737.56;5024769;28;20076;-74
2021/11/05 00:09:02;;;;;;;4.38;0.88;;;;;;;7.26;100.00;101732.06;5028936;28;20513;-74
2021/11/05 00:11:28;;;;;;;8.07;1.30;;;;;;;7.18;100.00;101736.09;5020953;28;20034;-74
2021/11/05 00:13:53;;;;;;;7.25;1.02;;;;;;;7.12;100.00;101735.78;5028115;28;20381;-74
2021/11/05 00:16:18;;;;;;;5.82;0.63;;;;;;;7.04;100.00;101728.50;5029262;28;21299;-74
2021/11/05 00:18:44;;;;;;;8.55;0.90;;;;;;;6.96;100.00;101731.56;5024779;28;20116;-74
2021/11/05 00:21:11;;;;;;;9.32;1.20;;;;;;;6.87;100.00;101732.94;5027111;28;20071;-74
2021/11/05 00:23:36;;;;;;;2.40;0.80;;;;;;;6.80;100.00;101730.88;5031877;28;20049;-74
2021/11/05 00:26:02;;;;;;;3.28;1.02;;;;;;;6.72;100.00;101734.88;5033103;28;20029;-74
2021/11/05 00:28:27;;;;;;;4.90;0.85;;;;;;;6.74;100.00;101749.81;5032866;28;20433;-73
2021/11/05 00:30:52;;;;;;;9.80;1.23;;;;;;;6.75;100.00;101746.38;5017412;28;20060;-73
2021/11/05 00:33:18;;;;;;;7.10;1.35;;;;;;;6.78;100.00;101752.56;5014993;28;20028;-75
2021/11/05 00:35:43;;;;;;;3.70;0.82;;;;;;;6.78;100.00;101752.56;5024386;28;20014;-74
2021/11/05 00:38:08;;;;;;;4.50;0.88;;;;;;;6.74;100.00;101759.34;5029715;28;20029;-74
2021/11/05 00:40:34;;;;;;;10.07;1.13;;;;;;;6.74;100.00;101762.88;5029914;28;20515;-75
2021/11/05 00:42:59;;;;;;;6.35;1.02;;;;;;;6.73;100.00;101768.06;5024618;28;20029;-75
2021/11/05 00:45:24;;;;;;;12.60;1.27;;;;;;;6.67;100.00;101778.22;5016229;28;20409;-74
2021/11/05 00:47:49;;;;;;;5.90;1.27;;;;;;;6.63;100.00;101777.16;5019345;28;20466;-74
2021/11/05 00:50:15;;;;;;;4.32;1.33;;;;;;;6.61;100.00;101770.09;5030450;28;20033;-74
2021/11/05 00:52:41;;;;;;;10.43;1.50;;;;;;;6.64;100.00;101776.34;5021961;28;20112;-73
2021/11/05 00:55:07;;;;;;;12.18;2.30;;;;;;;6.61;100.00;101778.81;5017740;28;20474;-74
2021/11/05 00:57:33;;;;;;;6.30;1.05;;;;;;;6.61;100.00;101778.81;5019970;28;20413;-73
2021/11/05 00:59:59;;;;;;;7.00;1.70;;;;;;;6.65;100.00;101783.38;5035506;28;20034;-74
2021/11/05 01:02:25;;;;;;;6.20;1.50;;;;;;;6.72;100.00;101787.19;5033237;28;20060;-74
2021/11/05 01:04:50;;;;;;;6.82;1.40;;;;;;;6.74;100.00;101786.44;5035044;28;20552;-73
2021/11/05 01:07:16;;;;;;;11.27;1.58;;;;;;;6.80;100.00;101791.06;5036899;28;20079;-73
2021/11/05 01:09:41;;;;;;;9.93;1.33;;;;;;;6.86;100.00;101795.66;5031310;28;20432;-73
2021/11/05 01:12:07;;;;;;;10.57;1.90;;;;;;;6.91;100.00;101788.94;5023146;28;20029;-74
2021/11/05 01:14:33;;;;;;;9.13;1.50;;;;;;;6.94;100.00;101794.31;5016768;28;20040;-73
2021/11/05 01:16:58;;;;;;;9.63;1.27;;;;;;;6.98;100.00;101791.00;5015315;28;20029;-74
2021/11/05 01:19:25;;;;;;;12.75;1.35;;;;;;;7.02;100.00;101787.72;5016674;28;21815;-74
2021/11/05 01:21:51;;;;;;;10.20;1.33;;;;;;;7.07;100.00;101785.31;5034372;28;20039;-74
2021/11/05 01:24:16;;;;;;;15.45;2.38;;;;;;;7.12;100.00;101789.03;5027292;28;20085;-75
2021/11/05 01:26:41;;;;;;;4.65;1.38;;;;;;;7.14;100.00;101789.13;5021241;28;20488;-73
2021/11/05 01:29:06;;;;;;;6.15;1.17;;;;;;;7.17;100.00;101791.88;5015997;28;20030;-74
2021/11/05 01:31:32;;;;;;;15.35;1.10;;;;;;;7.18;100.00;101791.94;5027955;28;20030;-74
2021/11/05 01:33:57;;;;;;;6.97;1.10;;;;;;;7.20;100.00;101787.69;5035131;28;20551;-74
2021/11/05 01:36:24;;;;;;;8.82;1.23;;;;;;;7.22;100.00;101790.38;5036856;28;20384;-74
2021/11/05 01:38:49;;;;;;;6.32;1.05;;;;;;;7.22;100.00;101795.59;5033435;28;20034;-74
2021/11/05 01:41:15;;;;;;;9.60;1.20;;;;;;;7.22;100.00;101800.84;5021533;28;20036;-74
2021/11/05 01:43:40;;;;;;;16.08;1.70;;;;;;;7.23;100.00;101797.38;5035582;28;20118;-73
2021/11/05 01:46:08;;;;;;;9.68;1.48;;;;;;;7.23;100.00;101802.59;5019327;28;20104;-74
2021/11/05 01:48:36;;;;;;;8.07;1.10;;;;;;;7.20;100.00;101797.22;5031277;28;20032;-74
2021/11/05 01:51:01;;;;;;;7.70;1.65;;;;;;;7.17;100.00;101802.34;5023080;28;20398;-74
2021/11/05 01:53:27;;;;;;;5.07;0.77;;;;;;;7.14;100.00;101802.22;5031918;28;20026;-74
2021/11/05 01:55:52;;;;;;;8.18;1.30;;;;;;;7.10;100.00;101809.00;5016939;28;20037;-73
2021/11/05 01:58:20;;;;;;;6.35;1.42;;;;;;;7.05;100.00;101813.13;5029876;28;20033;-74
2021/11/05 02:00:46;;;;;;;7.18;1.27;;;;;;;6.97;100.00;101815.38;5032795;28;20160;-74
2021/11/05 02:03:12;;;;;;;9.93;2.03;;;;;;;6.92;100.00;101809.94;5016752;28;20021;-74
2021/11/05 02:05:38;;;;;;;5.05;0.90;;;;;;;6.87;100.00;101818.41;5021695;28;20060;-74
2021/11/05 02:08:04;;;;;;;6.03;1.08;;;;;;;6.79;100.00;101814.53;5030382;28;20473;-74
2021/11/05 02:10:30;;;;;;;4.47;0.88;;;;;;;6.71;100.00;101817.66;5019104;28;20032;-74
2021/11/05 02:12:56;;;;;;;5.00;0.95;;;;;;;6.63;100.00;101815.50;5022615;28;20386;-75
2021/11/05 02:15:23;;;;;;;4.15;0.88;;;;;;;6.54;100.00;101823.81;5034490;28;20056;-75
2021/11/05 02:17:49;;;;;;;4.18;1.13;;;;;;;6.48;100.00;101826.13;5034655;28;20105;-75
2021/11/05 02:20:22;;;;;;;5.90;1.10;;;;;;;6.40;100.00;101818.81;5017394;28;20108;-75
2021/11/05 02:22:48;;;;;;;5.20;1.13;;;;;;;6.33;100.00;101826.25;5013980;28;20124;-75
2021/11/05 02:25:14;;;;;;;6.20;1.20;;;;;;;6.30;100.00;101824.38;5036792;28;20073;-74
2021/11/05 02:27:40;;;;;;;9.82;1.00;;;;;;;6.26;100.00;101826.78;5023264;28;20069;-75
2021/11/05 02:30:07;;;;;;;7.70;1.20;;;;;;;6.20;100.00;101832.56;5024429;28;20033;-74
2021/11/05 02:32:35;;;;;;;3.20;0.90;;;;;;;6.17;100.00;101837.66;5031840;28;20034;-74
2021/11/05 02:35:01;;;;;;;6.68;1.10;;;;;;;6.10;100.00;101840.78;5033485;28;20116;-74
2021/11/05 02:37:28;;;;;;;6.40;1.40;;;;;;;6.06;100.00;101837.09;5023760;28;20452;-74
2021/11/05 02:39:54;;;;;;;2.75;1.38;;;;;;;5.97;100.00;101839.19;5016396;28;20540;-73
2021/11/05 02:42:20;;;;;;;9.43;1.52;;;;;;;5.94;100.00;101839.97;5016788;28;20030;-73
2021/11/05 02:44:46;;;;;;;6.22;1.50;;;;;;;5.95;100.00;101838.25;5030400;28;20076;-74
2021/11/05 02:47:20;;;;;;;4.25;1.27;;;;;;;5.97;100.00;101840.13;5028642;28;20057;-74
2021/11/05 02:49:47;;;;;;;3.55;0.98;;;;;;;5.91;100.00;101847.63;5025258;28;20030;-74
2021/11/05 02:52:13;;;;;;;8.05;1.30;;;;;;;5.88;100.00;101844.88;5014102;28;20037;-73
2021/11/05 02:54:39;;;;;;;4.25;1.23;;;;;;;5.83;100.00;101849.88;5031561;28;20025;-73
2021/11/05 02:57:05;;;;;;;8.27;1.50;;;;;;;5.81;100.00;101848.00;5028272;28;20055;-73
2021/11/05 02:59:31;;;;;;;8.05;1.73;;;;;;;5.79;100.00;101849.59;5015208;28;20103;-73
2021/11/05 03:01:56;;;;;;;7.05;1.33;;;;;;;5.76;100.00;101842.50;5028719;28;20017;-74
2021/11/05 03:04:22;;;;;;;9.80;1.42;;;;;;;5.76;100.00;101846.84;5029565;28;20408;-75
2021/11/05 03:06:47;;;;;;;1.67;0.90;;;;;;;5.74;100.00;101852.00;5019782;28;20057;-74
2021/11/05 03:09:16;;;;;;;6.88;1.20;;;;;;;5.76;100.00;101854.69;5017057;28;20105;-73
2021/11/05 03:11:43;;;;;;;4.53;1.33;;;;;;;5.76;100.00;101857.28;5033912;28;20037;-74
2021/11/05 03:14:09;;;;;;;4.40;1.20;;;;;;;5.67;100.00;101856.00;5024731;28;20413;-74
2021/11/05 03:16:35;;;;;;;8.57;1.13;;;;;;;5.66;100.00;101854.19;5030276;28;20108;-75
2021/11/05 03:19:02;;;;;;;8.38;1.30;;;;;;;5.61;100.00;101853.03;5042802;28;20025;-75
2021/11/05 03:21:27;;;;;;;6.88;2.25;;;;;;;5.65;100.00;101860.22;5023256;28;20512;-73
2021/11/05 03:23:53;;;;;;;9.27;1.10;;;;;;;5.59;100.00;101859.91;5032658;28;20084;-74
2021/11/05 03:26:19;;;;;;;13.82;3.30;;;;;;;5.52;100.00;101866.53;5021841;28;20049;-74
2021/11/05 03:28:44;;;;;;;10.25;1.13;;;;;;;5.50;100.00;101875.09;5034002;28;20033;-74
2021/11/05 03:31:09;;;;;;;4.47;0.98;;;;;;;5.52;100.00;101876.03;5030531;28;20037;-75
2021/11/05 03:33:34;;;;;;;9.85;1.52;;;;;;;5.51;100.00;101879.50;5032934;28;20381;-75
2021/11/05 03:36:00;;;;;;;2.58;0.90;;;;;;;5.42;100.00;101881.59;5031777;28;20056;-74
2021/11/05 03:38:26;;;;;;;8.18;1.33;;;;;;;5.38;100.00;101883.13;5030068;28;20366;-75
2021/11/05 03:40:51;;;;;;;11.38;1.33;;;;;;;5.40;100.00;101890.25;5029639;28;20106;-75
2021/11/05 03:43:17;;;;;;;8.50;1.55;;;;;;;5.39;100.00;101893.66;5030403;28;20053;-75
2021/11/05 03:45:42;;;;;;;5.10;0.90;;;;;;;5.42;100.00;101894.66;5017996;28;20063;-74
2021/11/05 03:48:08;;;;;;;7.75;1.45;;;;;;;5.42;100.00;101897.25;5028727;28;20041;-74
2021/11/05 03:50:33;;;;;;;4.68;1.23;;;;;;;5.39;100.00;101896.25;5023606;28;20474;-74
2021/11/05 03:52:59;;;;;;;4.07;1.05;;;;;;;5.39;100.00;101901.50;5023512;28;20025;-75
2021/11/05 03:55:24;;;;;;;3.67;0.98;;;;;;;5.36;100.00;101906.53;5017624;28;20037;-74
2021/11/05 03:57:49;;;;;;;2.40;1.10;;;;;;;5.31;100.00;101904.50;5015149;28;20021;-73
2021/11/05 04:00:15;;;;;;;5.65;1.40;;;;;;;5.29;100.00;101913.94;5033098;28;20038;-74
2021/11/05 04:02:40;;;;;;;6.78;1.00;;;;;;;5.31;100.00;101914.94;5025168;28;20075;-74
2021/11/05 04:05:06;;;;;;;5.05;1.30;;;;;;;5.29;100.00;101920.09;5023163;28;20033;-74
2021/11/05 04:07:33;;;;;;;7.22;1.30;;;;;;;5.24;100.00;101927.63;5032320;28;20036;-74
2021/11/05 04:09:59;;;;;;;2.55;0.70;;;;;;;5.26;100.00;101935.53;5019987;28;20036;-73
2021/11/05 04:12:24;;;;;;;5.22;1.00;;;;;;;5.21;100.00;101931.81;5027981;28;20033;-73
2021/11/05 04:14:50;;;;;;;12.82;1.45;;;;;;;5.29;100.00;101942.66;5033170;28;20029;-74
2021/11/05 04:17:16;;;;;;;10.30;1.17;;;;;;;5.30;100.00;101937.50;5026065;28;20504;-74
2021/11/05 04:19:42;;;;;;;3.63;1.17;;;;;;;5.37;100.00;101944.91;5043915;28;20032;-74
2021/11/05 04:22:08;;;;;;;4.28;1.15;;;;;;;5.40;100.00;101934.63;5035264;28;20482;-74
2021/11/05 04:24:33;;;;;;;11.50;1.30;;;;;;;5.43;100.00;101943.44;5019937;28;20042;-75
2021/11/05 04:26:59;;;;;;;5.25;1.10;;;;;;;5.45;100.00;101947.03;5028181;28;20120;-76
2021/11/05 04:29:24;;;;;;;11.90;1.58;;;;;;;5.50;100.00;101940.34;5030637;28;20113;-74
2021/11/05 04:31:49;;;;;;;4.70;1.52;;;;;;;5.52;100.00;101950.06;5037471;28;20029;-74
2021/11/05 04:34:15;;;;;;;7.68;1.40;;;;;;;5.53;100.00;101951.84;5033890;28;20036;-74
2021/11/05 04:36:40;;;;;;;17.40;1.20;;;;;;;5.53;100.00;101957.06;5028661;28;20038;-73
2021/11/05 04:39:06;;;;;;;6.28;1.10;;;;;;;5.47;100.00;101966.28;5029234;28;20025;-73
2021/11/05 04:41:32;;;;;;;3.70;0.95;;;;;;;5.45;100.00;101968.78;5033048;28;20041;-74
2021/11/05 04:43:57;;;;;;;6.30;1.10;;;;;;;5.42;100.00;101976.47;5035761;28;20120;-73
2021/11/05 04:46:22;;;;;;;8.85;1.30;;;;;;;5.37;100.00;101980.50;5027295;28;20457;-75
2021/11/05 04:48:48;;;;;;;3.10;0.88;;;;;;;5.30;100.00;101974.06;5036479;28;20034;-74
2021/11/05 04:51:14;;;;;;;2.42;0.88;;;;;;;5.30;100.00;101981.00;5030181;28;20484;-74
2021/11/05 04:53:39;;;;;;;3.80;1.10;;;;;;;5.24;100.00;101978.94;5035239;28;20511;-74
2021/11/05 04:56:05;;;;;;;5.40;1.20;;;;;;;5.25;100.00;101983.34;5019176;28;20017;-74
2021/11/05 04:58:31;;;;;;;5.60;1.25;;;;;;;5.20;100.00;101982.19;5036642;28;20045;-73
2021/11/05 05:00:57;;;;;;;13.80;1.48;;;;;;;5.16;100.00;101988.03;5036350;28;20104;-74
2021/11/05 05:03:22;;;;;;;9.70;1.38;;;;;;;5.17;100.00;101987.25;5028657;28;20105;-74
2021/11/05 05:05:47;;;;;;;16.08;2.15;;;;;;;5.09;100.00;101994.63;5016064;28;20034;-74
2021/11/05 05:08:13;;;;;;;7.25;1.33;;;;;;;5.06;100.00;102000.56;5035957;28;20042;-75
2021/11/05 05:10:38;;;;;;;2.13;1.02;;;;;;;5.06;100.00;102005.78;5020398;28;20093;-75
2021/11/05 05:13:04;;;;;;;8.57;1.95;;;;;;;5.04;100.00;102002.16;5016974;28;20052;-75
2021/11/05 05:15:29;;;;;;;9.82;1.95;;;;;;;5.10;100.00;102006.88;5030857;28;20140;-75
2021/11/05 05:17:54;;;;;;;7.32;2.13;;;;;;;5.14;100.00;102018.34;5033223;28;20458;-75
2021/11/05 05:20:22;;;;;;;6.53;2.50;;;;;;;5.12;100.00;102014.78;5031110;28;20030;-74
2021/11/05 05:22:48;;;;;;;7.05;3.30;;;;;;;5.07;100.00;102018.03;5033542;28;20134;-74
2021/11/05 05:25:15;;;;;;;14.10;2.13;;;;;;;5.10;100.00;102024.22;5024088;28;20077;-74
2021/11/05 05:27:43;;;;;;;8.80;2.35;;;;;;;5.11;100.00;102024.28;5018587;28;20062;-74
2021/11/05 05:30:12;;;;;;;5.57;1.50;;;;;;;5.11;100.00;102028.63;5016963;28;20038;-75
2021/11/05 05:32:37;;;;;;;5.80;1.63;;;;;;;5.14;100.00;102034.00;5017861;28;20061;-75
2021/11/05 05:35:03;;;;;;;4.13;1.33;;;;;;;5.17;100.00;102034.22;5027841;28;20061;-74
2021/11/05 05:37:29;;;;;;;10.15;1.48;;;;;;;5.17;100.00;102036.81;5027360;28;20037;-73
2021/11/05 05:39:54;;;;;;;10.70;1.67;;;;;;;5.14;100.00;102044.44;5026957;28;20041;-74
2021/11/05 05:42:19;;;;;;;8.05;1.60;;;;;;;5.15;100.00;102041.03;5036669;28;20028;-73
2021/11/05 05:44:44;;;;;;;8.55;1.73;;;;;;;5.14;100.00;102039.22;5015626;28;20061;-74
2021/11/05 05:47:10;;;;;;;2.25;1.20;;;;;;;5.15;100.00;102046.25;5016293;28;20106;-73
2021/11/05 05:49:36;;;;;;;9.00;1.65;;;;;;;5.12;100.00;102051.31;5022736;28;20108;-74
2021/11/05 05:52:01;;;;;;;13.15;2.00;;;;;;;5.06;100.00;102050.13;5031643;28;20087;-75
2021/11/05 05:54:26;;;;;;;5.47;1.15;;;;;;;5.00;100.00;102057.56;5019167;28;20028;-73
2021/11/05 05:56:52;;;;;;;5.45;1.50;;;;;;;4.93;100.00;102054.53;5029572;28;20069;-75
2021/11/05 05:59:19;;;;;;;3.85;1.00;;;;;;;4.91;100.00;102062.28;5020547;28;20461;-74
2021/11/05 06:01:45;;;;;;;6.50;1.80;;;;;;;4.90;100.00;102070.91;5021537;28;20430;-74
2021/11/05 06:04:10;;;;;;;4.72;1.42;;;;;;;4.83;100.00;102063.50;5026851;28;20155;-74
2021/11/05 06:06:35;;;;;;;6.80;1.40;;;;;;;4.86;100.00;102071.53;5032785;28;20029;-75
2021/11/05 06:09:01;;;;;;;8.43;2.53;;;;;;;4.83;100.00;102073.94;5026295;28;20128;-75
2021/11/05 06:11:26;;;;;;;6.05;1.75;;;;;;;4.83;100.00;102068.72;5019295;28;20030;-75
2021/11/05 06:13:52;;;;;;;7.50;1.90;;;;;;;4.86;100.00;102084.56;5027888;28;20466;-74
2021/11/05 06:16:17;;;;;;;13.02;3.58;;;;;;;4.88;100.00;102085.53;5031014;28;20547;-74
2021/11/05 06:18:43;;;;;;;12.75;2.50;;;;;;;4.92;100.00;102090.13;5030376;28;20087;-74
2021/11/05 06:21:08;;;;;;;12.55;3.25;;;;;;;4.94;100.00;102098.97;5017334;28;20482;-74
2021/11/05 06:23:33;;;;;;;9.38;3.35;;;;;;;5.01;100.00;102100.22;5020805;28;20061;-75
2021/11/05 06:25:59;;;;;;;9.40;2.70;;;;;;;5.11;100.00;102099.94;5023185;28;20052;-74
2021/11/05 06:28:25;;;;;;;10.73;2.88;;;;;;;5.15;100.00;102111.47;5023034;28;20108;-77
2021/11/05 06:30:51;;;;;;;9.07;4.45;;;;;;;5.21;100.00;102112.75;5022544;28;20026;-76
2021/11/05 06:33:18;;;;;;;10.75;3.35;;;;;;;5.24;100.00;102114.63;5025088;28;20410;-76
2021/11/05 06:35:44;;;;;;;12.65;3.72;;;;;;;5.28;100.00;102111.41;5029136;28;20026;-77
2021/11/05 06:38:09;;;;;;;11.43;4.38;;;;;;;5.32;100.00;102120.31;5023459;28;20061;-77
2021/11/05 06:40:35;;;;;;;7.63;3.25;;;;;;;5.34;100.00;102116.06;5028526;28;20481;-76
2021/11/05 06:43:00;;;;;;;17.17;5.80;;;;;;;5.37;100.00;102119.78;5033287;28;20029;-76
2021/11/05 06:45:28;;;;;;;14.43;6.50;;;;;;;5.35;100.00;102123.09;5029683;28;20029;-78
2021/11/05 06:47:54;;;;;;;20.33;6.15;;;;;;;5.34;100.00;102132.63;5029347;28;20034;-78
2021/11/05 06:50:20;;;;;;;14.60;5.15;;;;;;;5.30;100.00;102141.06;5034373;28;20030;-77
2021/11/05 06:52:45;;;;;;;8.13;3.28;;;;;;;5.26;100.00;102139.09;5023195;28;20087;-76
2021/11/05 06:55:11;;;;;;;12.55;2.85;;;;;;;5.28;100.00;102145.31;5015086;28;20030;-76
2021/11/05 06:57:36;;;;;;;14.45;4.30;;;;;;;5.31;100.00;102153.31;5027778;28;20037;-77
2021/11/05 07:00:06;;;;;;;12.15;2.92;;;;;;;5.34;100.00;102150.00;5031679;28;20389;-76
2021/11/05 07:02:32;;;;;;;8.60;3.25;;;;;;;5.45;100.00;102161.06;5029220;28;20470;-75
2021/11/05 07:04:57;;;;;;;8.23;3.28;;;;;;;5.49;100.00;102160.44;5028658;28;20489;-77
2021/11/05 07:07:23;;;;;;;11.40;3.63;;;;;;;5.54;100.00;102167.72;5016254;28;20116;-77
2021/11/05 07:09:48;;;;;;;15.68;3.03;;;;;;;5.60;100.00;102167.19;5020458;28;20034;-77
2021/11/05 07:12:14;;;;;;;11.30;3.67;;;;;;;5.61;100.00;102163.75;5032992;28;20401;-77
2021/11/05 07:14:40;;;;;;;8.10;2.80;;;;;;;5.59;100.00;102175.84;5025125;28;20136;-76
2021/11/05 07:17:05;;;;;;;7.32;3.47;;;;;;;5.53;100.00;102172.88;5029000;28;20057;-76
2021/11/05 07:19:31;;;;;;;7.05;3.00;;;;;;;5.52;100.00;102184.09;5023306;28;20131;-75
2021/11/05 07:22:02;;;;;;;8.93;3.00;;;;;;;5.50;100.00;102185.75;5032523;28;20018;-76
2021/11/05 07:24:29;;;;;;;7.50;3.80;;;;;;;5.51;100.00;102195.38;5029581;28;20445;-75
2021/11/05 07:26:56;;;;;;;12.60;3.97;;;;;;;5.50;100.00;102202.31;5027427;28;20030;-75
2021/11/05 07:29:28;;;;;;;9.85;4.28;;;;;;;5.51;100.00;102203.22;5027135;28;20022;-75
2021/11/05 07:31:59;;;;;;;16.08;4.35;;;;;;;5.55;100.00;102210.44;5029448;28;20030;-78
2021/11/05 07:34:30;;;;;;;9.77;3.97;;;;;;;5.56;100.00;102206.97;5040531;28;20055;-75
2021/11/05 07:37:00;;;;;;;7.32;4.10;;;;;;;5.64;100.00;102217.88;5037111;28;20115;-76
2021/11/05 07:39:26;;;;;;;8.70;3.88;;;;;;;5.72;100.00;102219.22;5029377;28;20069;-76
2021/11/05 07:41:52;;;;;;;10.52;4.70;;;;;;;5.80;100.00;102224.91;5033860;28;20036;-76
2021/11/05 07:44:18;;;;;;;8.63;3.80;;;;;;;5.82;100.00;102233.72;5023220;28;20034;-77
2021/11/05 07:46:46;;;;;;;9.60;4.57;;;;;;;5.85;100.00;102239.16;5026157;28;20056;-76
2021/11/05 07:49:11;;;;;;;9.40;4.10;;;;;;;5.86;100.00;102238.31;5047835;28;20029;-75
2021/11/05 07:51:37;;;;;;;10.85;5.35;;;;;;;5.87;100.00;102254.09;5036567;28;20094;-77
2021/11/05 07:54:02;;;;;;;16.98;4.90;;;;;;;5.89;100.00;102254.19;5043844;28;20064;-77
2021/11/05 07:56:27;;;;;;;11.38;5.22;;;;;;;5.93;100.00;102255.25;5036529;28;20029;-75
2021/11/05 07:58:53;;;;;;;9.00;5.22;;;;;;;5.95;100.00;102257.13;5041978;28;20069;-76
2021/11/05 08:01:18;;;;;;;9.82;4.55;;;;;;;5.99;100.00;102253.03;5044969;28;20033;-76
2021/11/05 08:03:44;;;;;;;13.55;4.40;;;;;;;6.02;100.00;102266.28;5049932;28;20071;-78
2021/11/05 08:06:10;;;;;;;14.32;4.85;;;;;;;6.06;100.00;102263.94;5038810;28;20105;-75
2021/11/05 08:08:35;;;;;;;7.85;4.47;;;;;;;6.12;100.00;102273.84;5053361;28;20115;-74
2021/11/05 08:11:00;;;;;;;17.48;5.35;;;;;;;6.21;100.00;102278.69;5035414;28;20034;-76
2021/11/05 08:13:26;;;;;;;14.88;6.30;;;;;;;6.33;100.00;102274.16;5022390;28;20081;-77
2021/11/05 08:15:51;;;;;;;12.15;6.15;;;;;;;6.47;100.00;102272.34;5028612;28;20024;-76
2021/11/05 08:18:17;;;;;;;12.40;6.50;;;;;;;6.64;100.00;102283.75;5028261;28;20040;-76
2021/11/05 08:20:43;;;;;;;16.52;6.35;;;;;;;6.78;100.00;102284.50;5031173;28;20066;-76
2021/11/05 08:23:09;;;;;;;9.88;4.93;;;;;;;6.91;100.00;102281.75;5034519;28;20064;-77
2021/11/05 08:25:34;;;;;;;24.40;5.82;;;;;;;7.03;100.00;102292.00;5044765;28;20461;-76
2021/11/05 08:28:00;;;;;;;12.07;4.57;;;;;;;7.12;100.00;102295.94;5033449;28;20030;-75
2021/11/05 08:30:27;;;;;;;11.27;4.80;;;;;;;7.18;100.00;102302.38;5031236;28;20042;-75
2021/11/05 08:32:56;;;;;;;15.68;4.82;;;;;;;7.30;100.00;102304.78;5021568;28;20029;-79
2021/11/05 08:35:24;;;;;;;18.80;4.90;;;;;;;7.43;100.00;102311.56;5045388;28;20052;-76
2021/11/05 08:37:50;;;;;;;9.55;4.32;;;;;;;7.57;100.00;102312.31;5042829;28;20044;-75
2021/11/05 08:40:15;;;;;;;18.85;4.15;;;;;;;7.73;100.00;102316.59;5023285;28;20052;-76
2021/11/05 08:42:41;;;;;;;15.48;4.32;;;;;;;7.89;100.00;102313.94;5030419;28;20497;-76
2021/11/05 08:45:07;;;;;;;15.23;4.40;;;;;;;8.12;100.00;102324.72;5036698;28;20064;-77
2021/11/05 08:47:37;;;;;;;18.08;2.90;;;;;;;8.42;100.00;102320.13;5036779;28;20029;-76
2021/11/05 08:50:29;;;;;;;9.25;2.70;;;;;;;8.89;100.00;102331.13;5038028;28;20044;-76
2021/11/05 08:52:54;;;;;;;9.80;1.92;;;;;;;9.29;100.00;102329.44;5031784;28;20473;-78
2021/11/05 08:55:19;;;;;;;19.10;2.25;;;;;;;9.68;100.00;102329.44;5042830;28;20109;-74
2021/11/05 08:57:45;;;;;;;13.13;1.42;;;;;;;10.08;100.00;102331.19;5045272;28;20064;-76
2021/11/05 09:00:15;;;;;;;10.45;2.63;;;;;;;10.49;100.00;102339.03;5030685;28;20057;-77
2021/11/05 09:02:43;;;;;;;8.75;1.10;;;;;;;10.92;100.00;102339.84;5030251;28;20481;-74
2021/11/05 09:05:08;;;;;;;9.57;1.17;;;;;;;11.34;100.00;102339.72;5039898;28;20029;-77
2021/11/05 09:07:34;;;;;;;6.10;1.70;;;;;;;11.76;100.00;102333.31;5036336;28;20526;-77
2021/11/05 09:09:59;;;;;;;6.45;0.90;;;;;;;12.26;100.00;102315.75;5034082;28;20396;-76
2021/11/05 09:12:25;;;;;;;12.77;1.00;;;;;;;12.48;96.85;102321.75;5027235;28;20120;-75
2021/11/05 09:14:51;;;;;;;5.05;0.63;;;;;;;12.53;95.56;102330.69;5034405;28;20408;-75
2021/11/05 09:17:17;;;;;;;7.30;0.85;;;;;;;12.00;93.95;102333.31;5052663;28;20036;-77
2021/11/05 09:19:42;;;;;;;3.78;0.60;;;;;;;11.63;95.03;102332.88;5037034;28;20033;-77
2021/11/05 09:22:09;;;;;;;2.45;0.40;;;;;;;11.37;95.21;102338.94;5033780;28;20024;-75
2021/11/05 09:24:35;;;;;;;1.42;0.60;;;;;;;11.11;95.63;102352.03;5042432;28;20049;-75
2021/11/05 09:27:00;;;;;;;2.30;0.47;;;;;;;10.90;97.07;102352.06;5026216;28;20101;-75
2021/11/05 09:29:26;;;;;;;3.55;0.43;;;;;;;10.67;97.73;102365.22;5038787;28;20473;-75
2021/11/05 09:31:52;;;;;;;3.75;0.63;;;;;;;10.49;99.66;102365.38;5041883;28;20060;-75
2021/11/05 09:34:17;;;;;;;5.53;0.60;;;;;;;10.34;100.00;102381.38;5043086;28;20032;-76
2021/11/05 09:36:43;;;;;;;3.83;0.63;;;;;;;10.26;100.00;102382.78;5032450;28;20044;-76
2021/11/05 09:39:08;;;;;;;6.47;1.02;;;;;;;10.34;100.00;102391.00;5042541;28;20068;-76
2021/11/05 09:41:34;;;;;;;4.47;0.60;;;;;;;10.85;100.00;102393.13;5034020;28;20025;-75
2021/11/05 09:44:00;;;;;;;4.05;0.60;;;;;;;11.47;99.89;102394.66;5034987;28;20132;-77
2021/11/05 09:46:25;;;;;;;5.95;0.63;;;;;;;12.04;97.07;102387.97;5038961;28;20033;-77
2021/11/05 09:48:50;;;;;;;7.03;1.52;;;;;;;12.50;95.71;102393.06;5026385;28;20029;-76
2021/11/05 09:51:16;;;;;;;6.63;1.00;;;;;;;12.52;92.94;102389.63;5029045;28;20084;-76
2021/11/05 09:53:41;;;;;;;2.33;0.52;;;;;;;12.44;93.99;102399.94;5045971;28;20020;-76
2021/11/05 09:56:09;;;;;;;4.72;0.70;;;;;;;12.76;93.23;102408.00;5032975;28;20021;-77
2021/11/05 09:58:41;;;;;;;5.88;1.02;;;;;;;13.14;91.23;102408.38;5041080;28;20026;-77
2021/11/05 10:01:08;;;;;;;5.00;0.85;;;;;;;13.67;88.75;102404.66;5031919;28;20060;-76
2021/11/05 10:03:33;;;;;;;7.47;1.42;;;;;;;14.07;86.64;102397.84;5026302;28;20052;-76
2021/11/05 10:05:59;;;;;;;2.70;0.90;;;;;;;13.96;82.21;102399.31;5040968;28;20057;-76
2021/11/05 10:08:31;;;;;;;3.20;0.70;;;;;;;14.06;81.37;102401.34;5039379;28;20025;-77
2021/11/05 10:10:59;;;;;;;3.72;0.57;;;;;;;14.40;81.49;102402.22;5037015;28;20473;-75
2021/11/05 10:13:26;;;;;;;4.28;0.75;;;;;;;14.73;79.12;102400.41;5035643;28;20041;-76
2021/11/05 10:15:56;;;;;;;4.68;0.98;;;;;;;15.14;79.84;102411.13;5033333;28;20017;-77
2021/11/05 10:18:30;;;;;;;4.18;1.38;;;;;;;15.64;77.86;102407.75;5027989;28;20037;-77
2021/11/05 10:21:15;;;;;;;2.50;0.90;;;;;;;16.13;73.16;102400.81;5029663;28;20021;-77
2021/11/05 10:23:43;;;;;;;6.40;1.20;;;;;;;15.90;71.71;102397.72;5022360;28;20114;-77
2021/11/05 10:26:27;;;;;;;3.60;0.88;;;;;;;15.12;73.60;102407.53;5019230;28;20382;-77
2021/11/05 10:28:53;;;;;;;6.05;1.13;;;;;;;14.30;75.46;102416.09;5028243;28;20432;-77
2021/11/05 10:31:19;;;;;;;5.15;0.95;;;;;;;13.62;78.04;102424.81;5044398;28;20029;-76
2021/11/05 10:33:47;;;;;;;3.92;0.50;;;;;;;12.99;82.21;102432.56;5024115;28;20123;-75
2021/11/05 10:36:16;;;;;;;8.48;1.00;;;;;;;12.75;83.96;102448.50;5028320;28;20047;-77
2021/11/05 10:38:46;;;;;;;4.05;0.80;;;;;;;12.98;83.89;102443.97;5035852;28;20049;-77
2021/11/05 10:41:21;;;;;;;2.33;0.57;;;;;;;13.18;83.11;102451.63;5033081;28;20417;-77
2021/11/05 10:43:52;;;;;;;5.13;0.90;;;;;;;13.44;82.70;102447.22;5040122;28;20096;-78
2021/11/05 10:46:32;;;;;;;5.20;0.93;;;;;;;13.91;82.37;102443.25;5028627;28;20520;-77
2021/11/05 10:49:01;;;;;;;4.28;0.57;;;;;;;14.42;79.99;102442.91;5032395;28;20064;-77
2021/11/05 10:51:29;;;;;;;2.22;0.70;;;;;;;15.14;78.34;102446.47;5037710;28;20052;-78
2021/11/05 10:53:55;;;;;;;4.28;0.70;;;;;;;15.54;72.05;102429.69;5036042;28;20029;-78
2021/11/05 10:56:26;;;;;;;2.92;0.50;;;;;;;15.82;70.89;102432.06;5045428;28;20048;-76
2021/11/05 10:59:02;;;;;;;4.88;0.98;;;;;;;16.22;67.08;102426.63;5024147;28;20343;-78
2021/11/05 11:01:34;;;;;;;5.57;0.65;;;;;;;16.36;65.25;102418.94;5028988;28;20037;-79
2021/11/05 11:04:02;;;;;;;2.20;0.75;;;;;;;16.73;67.02;102422.22;5036790;28;20124;-79
2021/11/05 11:06:30;;;;;;;5.38;0.70;;;;;;;17.13;65.61;102424.63;5027705;28;20133;-78
2021/11/05 11:09:03;;;;;;;7.15;1.80;;;;;;;17.07;62.19;102419.22;5034447;28;20025;-78
2021/11/05 11:11:35;;;;;;;4.33;0.80;;;;;;;16.75;63.39;102423.13;5037381;28;20116;-78
2021/11/05 11:14:08;;;;;;;4.57;1.08;;;;;;;16.46;63.63;102426.19;5031995;28;20084;-78
2021/11/05 11:16:40;;;;;;;9.15;1.00;;;;;;;16.25;65.25;102436.41;5032312;28;20491;-77
2021/11/05 11:19:12;;;;;;;6.00;1.02;;;;;;;15.44;66.66;102440.09;5032164;28;20032;-78